Terminal Aerodrome Forecast
Issued by NWS

Home | Current Version | Previous Version | Text Only | Print | Product List | Glossary On
Versions: 1 2 3 4 5 6 7 8 9 10 11 12 13 14 15 16
000
FTUS42 TJSJ 181100 RRA
TAFJPS
TAF
TJPS 181139Z 1812/1912 06004KT P6SM VCSH SCT025 BKN050
     FM181430 12012KT P6SM SCT030 SCT060
     FM182300 09008KT P6SM SCT028 SCT080=

USA.gov is the U.S. government's official web portal to all federal, state and local government web resources and services.